sensor_id;sensor_type;location;lat;lon;timestamp;temperature;humidity
418;DHT22;49;48.530;9.200;2022-08-21T00:01:30;23.30;57.60
418;DHT22;49;48.530;9.200;2022-08-21T00:04:16;23.40;58.10
418;DHT22;49;48.530;9.200;2022-08-21T00:06:58;23.30;56.30
418;DHT22;49;48.530;9.200;2022-08-21T00:09:29;23.40;57.20
418;DHT22;49;48.530;9.200;2022-08-21T00:12:02;23.60;55.60
418;DHT22;49;48.530;9.200;2022-08-21T00:14:44;23.30;55.90
418;DHT22;49;48.530;9.200;2022-08-21T00:17:23;23.20;56.80
418;DHT22;49;48.530;9.200;2022-08-21T00:19:52;22.80;56.00
418;DHT22;49;48.530;9.200;2022-08-21T00:22:35;22.40;58.20
418;DHT22;49;48.530;9.200;2022-08-21T00:25:17;22.20;58.00
418;DHT22;49;48.530;9.200;2022-08-21T00:27:53;22.20;60.30
418;DHT22;49;48.530;9.200;2022-08-21T00:30:30;21.90;60.30
418;DHT22;49;48.530;9.200;2022-08-21T00:33:03;21.60;61.90
418;DHT22;49;48.530;9.200;2022-08-21T00:35:43;21.50;62.90
418;DHT22;49;48.530;9.200;2022-08-21T00:38:19;21.60;66.10
418;DHT22;49;48.530;9.200;2022-08-21T00:40:51;22.00;64.80
418;DHT22;49;48.530;9.200;2022-08-21T00:43:27;22.10;60.60
418;DHT22;49;48.530;9.200;2022-08-21T00:46:14;22.10;61.20
418;DHT22;49;48.530;9.200;2022-08-21T00:48:55;22.30;61.70
418;DHT22;49;48.530;9.200;2022-08-21T00:51:35;22.50;61.40
418;DHT22;49;48.530;9.200;2022-08-21T00:54:09;22.70;61.10
418;DHT22;49;48.530;9.200;2022-08-21T00:56:39;23.00;60.70
418;DHT22;49;48.530;9.200;2022-08-21T00:59:23;23.00;59.40
418;DHT22;49;48.530;9.200;2022-08-21T01:01:55;23.10;58.70
418;DHT22;49;48.530;9.200;2022-08-21T01:04:29;23.10;58.30
418;DHT22;49;48.530;9.200;2022-08-21T01:07:04;23.10;58.60
418;DHT22;49;48.530;9.200;2022-08-21T01:09:33;23.20;58.50
418;DHT22;49;48.530;9.200;2022-08-21T01:12:09;23.10;54.50
418;DHT22;49;48.530;9.200;2022-08-21T01:14:43;22.90;57.00
418;DHT22;49;48.530;9.200;2022-08-21T01:17:15;22.80;57.50
418;DHT22;49;48.530;9.200;2022-08-21T01:19:48;22.70;55.70
418;DHT22;49;48.530;9.200;2022-08-21T01:22:34;22.10;55.40
418;DHT22;49;48.530;9.200;2022-08-21T01:25:24;21.60;58.40
418;DHT22;49;48.530;9.200;2022-08-21T01:28:00;21.80;60.70
418;DHT22;49;48.530;9.200;2022-08-21T01:30:35;22.00;60.00
418;DHT22;49;48.530;9.200;2022-08-21T01:33:09;21.90;58.20
418;DHT22;49;48.530;9.200;2022-08-21T01:35:44;21.70;60.90
418;DHT22;49;48.530;9.200;2022-08-21T01:38:14;21.70;62.50
418;DHT22;49;48.530;9.200;2022-08-21T01:40:58;22.00;58.40
418;DHT22;49;48.530;9.200;2022-08-21T01:43:36;21.70;59.10
418;DHT22;49;48.530;9.200;2022-08-21T01:46:08;21.20;61.70
418;DHT22;49;48.530;9.200;2022-08-21T01:48:42;21.30;62.80
418;DHT22;49;48.530;9.200;2022-08-21T01:51:26;21.60;63.00
418;DHT22;49;48.530;9.200;2022-08-21T01:53:59;21.40;59.70
418;DHT22;49;48.530;9.200;2022-08-21T01:56:37;21.30;60.70
418;DHT22;49;48.530;9.200;2022-08-21T01:59:07;21.20;63.10
418;DHT22;49;48.530;9.200;2022-08-21T02:01:37;21.40;61.40
418;DHT22;49;48.530;9.200;2022-08-21T02:04:27;21.60;60.40
418;DHT22;49;48.530;9.200;2022-08-21T02:06:56;21.90;60.30
418;DHT22;49;48.530;9.200;2022-08-21T02:09:36;21.90;58.90
418;DHT22;49;48.530;9.200;2022-08-21T02:12:04;21.60;59.40
418;DHT22;49;48.530;9.200;2022-08-21T02:14:33;21.40;62.80
418;DHT22;49;48.530;9.200;2022-08-21T02:17:01;21.20;61.20
418;DHT22;49;48.530;9.200;2022-08-21T02:19:38;21.00;64.10
418;DHT22;49;48.530;9.200;2022-08-21T02:22:07;21.20;62.10
418;DHT22;49;48.530;9.200;2022-08-21T02:24:46;21.40;65.80
418;DHT22;49;48.530;9.200;2022-08-21T02:27:14;21.50;63.50
418;DHT22;49;48.530;9.200;2022-08-21T02:29:41;21.80;61.60
418;DHT22;49;48.530;9.200;2022-08-21T02:32:12;21.80;59.10
418;DHT22;49;48.530;9.200;2022-08-21T02:34:44;21.20;59.70
418;DHT22;49;48.530;9.200;2022-08-21T02:37:12;21.20;61.90
418;DHT22;49;48.530;9.200;2022-08-21T02:39:39;21.40;61.50
418;DHT22;49;48.530;9.200;2022-08-21T02:42:13;21.50;62.10
418;DHT22;49;48.530;9.200;2022-08-21T02:44:45;21.30;59.30
418;DHT22;49;48.530;9.200;2022-08-21T02:47:14;21.50;60.00
418;DHT22;49;48.530;9.200;2022-08-21T02:49:44;21.60;56.50
418;DHT22;49;48.530;9.200;2022-08-21T02:52:13;21.20;57.30
418;DHT22;49;48.530;9.200;2022-08-21T02:54:54;21.40;61.60
418;DHT22;49;48.530;9.200;2022-08-21T02:57:34;21.40;58.60
418;DHT22;49;48.530;9.200;2022-08-21T03:00:05;21.50;62.10
418;DHT22;49;48.530;9.200;2022-08-21T03:02:39;21.30;58.50
418;DHT22;49;48.530;9.200;2022-08-21T03:05:12;21.30;63.60
418;DHT22;49;48.530;9.200;2022-08-21T03:07:41;21.20;58.20
418;DHT22;49;48.530;9.200;2022-08-21T03:10:09;21.00;58.10
418;DHT22;49;48.530;9.200;2022-08-21T03:12:58;21.00;59.50
418;DHT22;49;48.530;9.200;2022-08-21T03:15:29;20.90;57.50
418;DHT22;49;48.530;9.200;2022-08-21T03:18:00;20.80;59.40
418;DHT22;49;48.530;9.200;2022-08-21T03:20:32;20.90;60.50
418;DHT22;49;48.530;9.200;2022-08-21T03:23:03;21.30;61.40
418;DHT22;49;48.530;9.200;2022-08-21T03:25:37;21.00;56.20
418;DHT22;49;48.530;9.200;2022-08-21T03:28:21;20.70;57.80
418;DHT22;49;48.530;9.200;2022-08-21T03:30:59;20.50;61.20
418;DHT22;49;48.530;9.200;2022-08-21T03:33:28;20.50;59.10
418;DHT22;49;48.530;9.200;2022-08-21T03:35:59;20.20;65.60
418;DHT22;49;48.530;9.200;2022-08-21T03:38:31;19.70;64.40
418;DHT22;49;48.530;9.200;2022-08-21T03:41:00;19.40;70.30
418;DHT22;49;48.530;9.200;2022-08-21T03:43:32;19.10;70.50
418;DHT22;49;48.530;9.200;2022-08-21T03:46:09;19.10;71.20
418;DHT22;49;48.530;9.200;2022-08-21T03:48:38;19.20;70.10
418;DHT22;49;48.530;9.200;2022-08-21T03:51:08;19.10;70.90
418;DHT22;49;48.530;9.200;2022-08-21T03:53:39;19.20;71.30
418;DHT22;49;48.530;9.200;2022-08-21T03:56:21;19.70;73.70
418;DHT22;49;48.530;9.200;2022-08-21T03:58:58;20.00;69.70
418;DHT22;49;48.530;9.200;2022-08-21T04:01:39;19.90;67.70
418;DHT22;49;48.530;9.200;2022-08-21T04:04:10;19.90;68.00
418;DHT22;49;48.530;9.200;2022-08-21T04:06:47;20.00;68.20
418;DHT22;49;48.530;9.200;2022-08-21T04:09:17;20.20;66.50
418;DHT22;49;48.530;9.200;2022-08-21T04:11:51;20.30;66.80
418;DHT22;49;48.530;9.200;2022-08-21T04:14:20;20.40;62.00
418;DHT22;49;48.530;9.200;2022-08-21T04:16:51;20.90;69.10
418;DHT22;49;48.530;9.200;2022-08-21T04:19:24;21.20;65.70
418;DHT22;49;48.530;9.200;2022-08-21T04:21:56;21.30;59.40
418;DHT22;49;48.530;9.200;2022-08-21T04:24:28;21.10;62.80
418;DHT22;49;48.530;9.200;2022-08-21T04:27:00;21.00;58.30
418;DHT22;49;48.530;9.200;2022-08-21T04:29:35;21.00;58.90
418;DHT22;49;48.530;9.200;2022-08-21T04:32:08;21.00;59.10
418;DHT22;49;48.530;9.200;2022-08-21T04:34:41;21.10;59.70
418;DHT22;49;48.530;9.200;2022-08-21T04:37:12;20.70;61.90
418;DHT22;49;48.530;9.200;2022-08-21T04:39:41;20.80;62.60
418;DHT22;49;48.530;9.200;2022-08-21T04:42:15;20.60;59.60
418;DHT22;49;48.530;9.200;2022-08-21T04:44:47;20.50;62.30
418;DHT22;49;48.530;9.200;2022-08-21T04:47:15;20.70;59.30
418;DHT22;49;48.530;9.200;2022-08-21T04:49:44;20.50;59.10
418;DHT22;49;48.530;9.200;2022-08-21T04:52:19;20.20;61.80
418;DHT22;49;48.530;9.200;2022-08-21T04:54:48;20.60;62.90
418;DHT22;49;48.530;9.200;2022-08-21T04:57:21;20.70;60.40
418;DHT22;49;48.530;9.200;2022-08-21T04:59:57;20.80;58.10
418;DHT22;49;48.530;9.200;2022-08-21T05:02:25;20.70;61.70
418;DHT22;49;48.530;9.200;2022-08-21T05:04:54;21.00;59.50
418;DHT22;49;48.530;9.200;2022-08-21T05:07:27;21.20;59.80
418;DHT22;49;48.530;9.200;2022-08-21T05:09:59;21.30;57.80
418;DHT22;49;48.530;9.200;2022-08-21T05:12:31;21.10;58.20
418;DHT22;49;48.530;9.200;2022-08-21T05:15:05;21.20;56.30
418;DHT22;49;48.530;9.200;2022-08-21T05:17:35;20.90;61.80
418;DHT22;49;48.530;9.200;2022-08-21T05:20:06;20.80;55.30
418;DHT22;49;48.530;9.200;2022-08-21T05:22:34;20.40;59.00
418;DHT22;49;48.530;9.200;2022-08-21T05:25:01;20.60;59.20
418;DHT22;49;48.530;9.200;2022-08-21T05:27:35;20.60;58.10
418;DHT22;49;48.530;9.200;2022-08-21T05:30:05;20.30;61.10
418;DHT22;49;48.530;9.200;2022-08-21T05:32:33;20.90;63.60
418;DHT22;49;48.530;9.200;2022-08-21T05:35:01;22.50;59.80
418;DHT22;49;48.530;9.200;2022-08-21T05:37:31;24.10;51.10
418;DHT22;49;48.530;9.200;2022-08-21T05:39:59;25.50;46.90
418;DHT22;49;48.530;9.200;2022-08-21T05:42:28;26.60;39.60
418;DHT22;49;48.530;9.200;2022-08-21T05:44:56;27.60;34.50
418;DHT22;49;48.530;9.200;2022-08-21T05:47:26;28.30;30.80
418;DHT22;49;48.530;9.200;2022-08-21T05:49:55;28.90;31.50
418;DHT22;49;48.530;9.200;2022-08-21T05:52:23;29.40;28.80
418;DHT22;49;48.530;9.200;2022-08-21T05:54:52;29.90;27.50
418;DHT22;49;48.530;9.200;2022-08-21T05:57:22;30.30;26.80
418;DHT22;49;48.530;9.200;2022-08-21T06:00:07;30.60;24.50
418;DHT22;49;48.530;9.200;2022-08-21T06:02:45;30.80;24.60
418;DHT22;49;48.530;9.200;2022-08-21T06:05:16;31.00;24.70
418;DHT22;49;48.530;9.200;2022-08-21T06:07:43;31.40;23.70
418;DHT22;49;48.530;9.200;2022-08-21T06:10:11;32.00;22.10
418;DHT22;49;48.530;9.200;2022-08-21T06:12:38;32.20;21.80
418;DHT22;49;48.530;9.200;2022-08-21T06:15:21;32.30;21.60
418;DHT22;49;48.530;9.200;2022-08-21T06:17:54;32.40;21.10
418;DHT22;49;48.530;9.200;2022-08-21T06:20:24;32.60;20.90
418;DHT22;49;48.530;9.200;2022-08-21T06:22:52;32.60;20.60
418;DHT22;49;48.530;9.200;2022-08-21T06:25:22;32.90;19.60
418;DHT22;49;48.530;9.200;2022-08-21T06:27:50;32.90;19.60
418;DHT22;49;48.530;9.200;2022-08-21T06:30:19;33.30;19.80
418;DHT22;49;48.530;9.200;2022-08-21T06:32:46;33.80;18.70
418;DHT22;49;48.530;9.200;2022-08-21T06:35:20;33.80;19.10
418;DHT22;49;48.530;9.200;2022-08-21T06:37:55;33.90;17.90
418;DHT22;49;48.530;9.200;2022-08-21T06:40:27;34.30;16.80
418;DHT22;49;48.530;9.200;2022-08-21T06:42:55;34.30;17.70
418;DHT22;49;48.530;9.200;2022-08-21T06:45:22;34.10;17.80
418;DHT22;49;48.530;9.200;2022-08-21T06:47:52;34.30;18.30
418;DHT22;49;48.530;9.200;2022-08-21T06:50:21;34.70;17.00
418;DHT22;49;48.530;9.200;2022-08-21T06:52:48;35.10;15.90
418;DHT22;49;48.530;9.200;2022-08-21T06:55:16;35.30;16.20
418;DHT22;49;48.530;9.200;2022-08-21T06:57:45;34.90;15.90
418;DHT22;49;48.530;9.200;2022-08-21T07:00:12;35.30;15.40
418;DHT22;49;48.530;9.200;2022-08-21T07:02:40;34.90;16.00
418;DHT22;49;48.530;9.200;2022-08-21T07:05:09;34.30;16.80
418;DHT22;49;48.530;9.200;2022-08-21T07:07:38;33.90;17.90
418;DHT22;49;48.530;9.200;2022-08-21T07:10:08;34.30;17.00
418;DHT22;49;48.530;9.200;2022-08-21T07:12:35;34.80;15.80
418;DHT22;49;48.530;9.200;2022-08-21T07:15:06;34.60;16.20
418;DHT22;49;48.530;9.200;2022-08-21T07:17:35;34.90;16.00
418;DHT22;49;48.530;9.200;2022-08-21T07:20:08;34.80;15.90
418;DHT22;49;48.530;9.200;2022-08-21T07:22:37;35.30;15.20
418;DHT22;49;48.530;9.200;2022-08-21T07:25:08;35.40;15.20
418;DHT22;49;48.530;9.200;2022-08-21T07:27:35;36.10;14.30
418;DHT22;49;48.530;9.200;2022-08-21T07:30:06;35.70;14.10
418;DHT22;49;48.530;9.200;2022-08-21T07:32:33;34.60;16.00
418;DHT22;49;48.530;9.200;2022-08-21T07:35:00;34.90;16.10
418;DHT22;49;48.530;9.200;2022-08-21T07:37:28;35.90;14.00
418;DHT22;49;48.530;9.200;2022-08-21T07:39:57;36.10;13.70
418;DHT22;49;48.530;9.200;2022-08-21T07:42:26;36.00;14.00
418;DHT22;49;48.530;9.200;2022-08-21T07:44:54;35.60;14.30
418;DHT22;49;48.530;9.200;2022-08-21T07:47:21;34.50;15.80
418;DHT22;49;48.530;9.200;2022-08-21T07:49:49;34.60;16.30
418;DHT22;49;48.530;9.200;2022-08-21T07:52:17;35.60;14.30
418;DHT22;49;48.530;9.200;2022-08-21T07:54:47;36.00;13.30
418;DHT22;49;48.530;9.200;2022-08-21T07:57:16;37.00;13.30
418;DHT22;49;48.530;9.200;2022-08-21T07:59:56;37.00;12.10
418;DHT22;49;48.530;9.200;2022-08-21T08:02:25;35.80;15.20
418;DHT22;49;48.530;9.200;2022-08-21T08:04:52;35.50;14.20
418;DHT22;49;48.530;9.200;2022-08-21T08:07:20;34.20;15.80
418;DHT22;49;48.530;9.200;2022-08-21T08:09:47;34.00;16.60
418;DHT22;49;48.530;9.200;2022-08-21T08:12:15;34.70;15.70
418;DHT22;49;48.530;9.200;2022-08-21T08:14:48;35.00;14.30
418;DHT22;49;48.530;9.200;2022-08-21T08:17:15;36.00;12.70
418;DHT22;49;48.530;9.200;2022-08-21T08:19:44;36.10;12.50
418;DHT22;49;48.530;9.200;2022-08-21T08:22:14;36.10;11.50
418;DHT22;49;48.530;9.200;2022-08-21T08:24:41;35.70;12.40
418;DHT22;49;48.530;9.200;2022-08-21T08:27:09;35.90;12.50
418;DHT22;49;48.530;9.200;2022-08-21T08:29:37;35.80;12.60
418;DHT22;49;48.530;9.200;2022-08-21T08:32:05;35.90;12.10
418;DHT22;49;48.530;9.200;2022-08-21T08:34:34;36.00;11.70
418;DHT22;49;48.530;9.200;2022-08-21T08:37:07;36.00;11.50
418;DHT22;49;48.530;9.200;2022-08-21T08:39:35;35.50;12.20
418;DHT22;49;48.530;9.200;2022-08-21T08:42:06;35.00;12.50
418;DHT22;49;48.530;9.200;2022-08-21T08:44:44;34.10;13.80
418;DHT22;49;48.530;9.200;2022-08-21T08:47:16;34.30;12.70
418;DHT22;49;48.530;9.200;2022-08-21T08:49:55;34.40;13.20
418;DHT22;49;48.530;9.200;2022-08-21T08:52:29;34.20;13.30
418;DHT22;49;48.530;9.200;2022-08-21T08:55:02;33.80;13.80
418;DHT22;49;48.530;9.200;2022-08-21T08:57:32;33.50;15.00
418;DHT22;49;48.530;9.200;2022-08-21T09:00:07;33.30;14.70
418;DHT22;49;48.530;9.200;2022-08-21T09:02:41;32.40;15.00
418;DHT22;49;48.530;9.200;2022-08-21T09:05:20;31.90;16.80
418;DHT22;49;48.530;9.200;2022-08-21T09:08:11;32.10;15.70
418;DHT22;49;48.530;9.200;2022-08-21T09:10:51;31.80;16.70
418;DHT22;49;48.530;9.200;2022-08-21T09:13:28;31.40;16.00
418;DHT22;49;48.530;9.200;2022-08-21T09:16:09;31.50;18.90
418;DHT22;49;48.530;9.200;2022-08-21T09:18:51;31.50;16.80
418;DHT22;49;48.530;9.200;2022-08-21T09:21:30;31.10;16.50
418;DHT22;49;48.530;9.200;2022-08-21T09:24:02;30.60;16.60
418;DHT22;49;48.530;9.200;2022-08-21T09:26:48;30.90;17.90
418;DHT22;49;48.530;9.200;2022-08-21T09:29:23;30.90;17.00
418;DHT22;49;48.530;9.200;2022-08-21T09:31:54;30.30;18.20
418;DHT22;49;48.530;9.200;2022-08-21T09:34:25;30.10;17.90
418;DHT22;49;48.530;9.200;2022-08-21T09:36:53;30.30;17.60
418;DHT22;49;48.530;9.200;2022-08-21T09:39:24;30.00;18.00
418;DHT22;49;48.530;9.200;2022-08-21T09:41:56;29.90;18.60
418;DHT22;49;48.530;9.200;2022-08-21T09:44:27;30.40;17.40
418;DHT22;49;48.530;9.200;2022-08-21T09:46:56;29.70;17.40
418;DHT22;49;48.530;9.200;2022-08-21T09:49:35;29.40;17.70
418;DHT22;49;48.530;9.200;2022-08-21T09:52:15;29.60;16.80
418;DHT22;49;48.530;9.200;2022-08-21T09:54:45;29.80;15.00
418;DHT22;49;48.530;9.200;2022-08-21T09:57:16;29.80;13.80
418;DHT22;49;48.530;9.200;2022-08-21T10:00:10;30.30;15.50
418;DHT22;49;48.530;9.200;2022-08-21T10:02:43;30.00;16.80
418;DHT22;49;48.530;9.200;2022-08-21T10:05:17;29.80;17.50
418;DHT22;49;48.530;9.200;2022-08-21T10:07:48;29.80;17.20
418;DHT22;49;48.530;9.200;2022-08-21T10:10:17;28.80;17.50
418;DHT22;49;48.530;9.200;2022-08-21T10:12:51;28.50;19.50
418;DHT22;49;48.530;9.200;2022-08-21T10:15:22;28.90;18.80
418;DHT22;49;48.530;9.200;2022-08-21T10:17:59;28.80;17.40
418;DHT22;49;48.530;9.200;2022-08-21T10:20:37;29.10;18.10
418;DHT22;49;48.530;9.200;2022-08-21T10:23:20;29.30;17.00
418;DHT22;49;48.530;9.200;2022-08-21T10:26:00;29.90;16.70
418;DHT22;49;48.530;9.200;2022-08-21T10:28:37;29.30;17.50
418;DHT22;49;48.530;9.200;2022-08-21T10:31:12;29.30;16.80
418;DHT22;49;48.530;9.200;2022-08-21T10:33:50;29.60;16.50
418;DHT22;49;48.530;9.200;2022-08-21T10:36:23;29.00;17.50
418;DHT22;49;48.530;9.200;2022-08-21T10:39:09;28.40;17.80
418;DHT22;49;48.530;9.200;2022-08-21T10:41:52;29.00;17.50
418;DHT22;49;48.530;9.200;2022-08-21T10:44:29;29.30;17.00
418;DHT22;49;48.530;9.200;2022-08-21T10:47:01;29.10;16.70
418;DHT22;49;48.530;9.200;2022-08-21T10:49:39;28.60;17.30
418;DHT22;49;48.530;9.200;2022-08-21T10:52:22;29.00;17.50
418;DHT22;49;48.530;9.200;2022-08-21T10:54:54;29.00;16.80
418;DHT22;49;48.530;9.200;2022-08-21T10:57:29;28.40;17.20
418;DHT22;49;48.530;9.200;2022-08-21T11:00:04;28.40;17.90
418;DHT22;49;48.530;9.200;2022-08-21T11:02:38;29.00;16.90
418;DHT22;49;48.530;9.200;2022-08-21T11:05:12;29.50;15.20
418;DHT22;49;48.530;9.200;2022-08-21T11:07:47;29.60;13.60
418;DHT22;49;48.530;9.200;2022-08-21T11:10:21;29.50;14.90
418;DHT22;49;48.530;9.200;2022-08-21T11:12:52;29.70;16.10
418;DHT22;49;48.530;9.200;2022-08-21T11:15:28;29.80;15.20
418;DHT22;49;48.530;9.200;2022-08-21T11:18:04;28.90;15.20
418;DHT22;49;48.530;9.200;2022-08-21T11:20:43;28.40;16.20
418;DHT22;49;48.530;9.200;2022-08-21T11:23:21;28.80;15.40
418;DHT22;49;48.530;9.200;2022-08-21T11:25:55;28.40;16.40
418;DHT22;49;48.530;9.200;2022-08-21T11:28:29;28.70;16.30
418;DHT22;49;48.530;9.200;2022-08-21T11:31:04;29.20;15.60
418;DHT22;49;48.530;9.200;2022-08-21T11:33:53;29.70;14.40
418;DHT22;49;48.530;9.200;2022-08-21T11:36:31;29.50;14.00
418;DHT22;49;48.530;9.200;2022-08-21T11:39:06;29.30;14.20
418;DHT22;49;48.530;9.200;2022-08-21T11:41:45;29.30;14.00
418;DHT22;49;48.530;9.200;2022-08-21T11:44:20;29.40;13.90
418;DHT22;49;48.530;9.200;2022-08-21T11:46:56;29.60;13.80
418;DHT22;49;48.530;9.200;2022-08-21T11:49:39;29.50;13.90
418;DHT22;49;48.530;9.200;2022-08-21T11:52:16;29.70;13.90
418;DHT22;49;48.530;9.200;2022-08-21T11:54:49;30.10;16.30
418;DHT22;49;48.530;9.200;2022-08-21T11:57:24;29.20;15.60
418;DHT22;49;48.530;9.200;2022-08-21T11:59:55;29.10;15.00
418;DHT22;49;48.530;9.200;2022-08-21T12:02:29;29.50;14.30
418;DHT22;49;48.530;9.200;2022-08-21T12:05:07;29.60;16.70
418;DHT22;49;48.530;9.200;2022-08-21T12:07:41;29.60;14.70
418;DHT22;49;48.530;9.200;2022-08-21T12:10:13;29.60;14.40
418;DHT22;49;48.530;9.200;2022-08-21T12:12:44;29.50;14.30
418;DHT22;49;48.530;9.200;2022-08-21T12:15:22;29.70;14.80
418;DHT22;49;48.530;9.200;2022-08-21T12:17:59;29.70;14.30
418;DHT22;49;48.530;9.200;2022-08-21T12:20:41;29.90;14.00
418;DHT22;49;48.530;9.200;2022-08-21T12:23:24;29.80;14.00
418;DHT22;49;48.530;9.200;2022-08-21T12:26:11;30.00;13.70
418;DHT22;49;48.530;9.200;2022-08-21T12:28:41;29.80;14.00
418;DHT22;49;48.530;9.200;2022-08-21T12:31:23;30.20;14.90
418;DHT22;49;48.530;9.200;2022-08-21T12:33:59;30.50;13.50
418;DHT22;49;48.530;9.200;2022-08-21T12:36:39;31.00;13.60
418;DHT22;49;48.530;9.200;2022-08-21T12:39:14;30.70;13.30
418;DHT22;49;48.530;9.200;2022-08-21T12:41:47;30.70;13.80
418;DHT22;49;48.530;9.200;2022-08-21T12:44:22;30.10;13.10
418;DHT22;49;48.530;9.200;2022-08-21T12:46:57;29.90;13.70
418;DHT22;49;48.530;9.200;2022-08-21T12:49:30;30.10;14.30
418;DHT22;49;48.530;9.200;2022-08-21T12:52:09;30.20;13.30
418;DHT22;49;48.530;9.200;2022-08-21T12:54:42;30.10;13.90
418;DHT22;49;48.530;9.200;2022-08-21T12:57:18;29.40;14.70
418;DHT22;49;48.530;9.200;2022-08-21T12:59:52;29.50;14.00
418;DHT22;49;48.530;9.200;2022-08-21T13:02:23;29.70;14.20
418;DHT22;49;48.530;9.200;2022-08-21T13:04:52;29.90;14.30
418;DHT22;49;48.530;9.200;2022-08-21T13:07:26;30.50;14.80
418;DHT22;49;48.530;9.200;2022-08-21T13:09:59;31.00;13.40
418;DHT22;49;48.530;9.200;2022-08-21T13:12:28;31.20;13.00
418;DHT22;49;48.530;9.200;2022-08-21T13:14:58;30.80;13.10
418;DHT22;49;48.530;9.200;2022-08-21T13:17:29;30.80;13.00
418;DHT22;49;48.530;9.200;2022-08-21T13:19:59;31.00;13.00
418;DHT22;49;48.530;9.200;2022-08-21T13:22:27;30.80;12.90
418;DHT22;49;48.530;9.200;2022-08-21T13:24:57;30.90;13.30
418;DHT22;49;48.530;9.200;2022-08-21T13:27:29;30.80;13.00
418;DHT22;49;48.530;9.200;2022-08-21T13:30:09;30.40;13.80
418;DHT22;49;48.530;9.200;2022-08-21T13:32:40;30.30;13.30
418;DHT22;49;48.530;9.200;2022-08-21T13:35:14;30.60;12.90
418;DHT22;49;48.530;9.200;2022-08-21T13:37:44;30.60;13.20
418;DHT22;49;48.530;9.200;2022-08-21T13:40:19;30.70;12.80
418;DHT22;49;48.530;9.200;2022-08-21T13:42:48;30.90;12.60
418;DHT22;49;48.530;9.200;2022-08-21T13:45:32;30.40;12.90
418;DHT22;49;48.530;9.200;2022-08-21T13:48:04;30.90;12.90
418;DHT22;49;48.530;9.200;2022-08-21T13:50:35;31.20;12.40
418;DHT22;49;48.530;9.200;2022-08-21T13:53:07;31.50;12.20
418;DHT22;49;48.530;9.200;2022-08-21T13:55:42;31.30;12.50
418;DHT22;49;48.530;9.200;2022-08-21T13:58:23;31.30;12.30
418;DHT22;49;48.530;9.200;2022-08-21T14:00:50;31.40;12.50
418;DHT22;49;48.530;9.200;2022-08-21T14:03:29;31.50;12.50
418;DHT22;49;48.530;9.200;2022-08-21T14:05:59;31.60;11.60
418;DHT22;49;48.530;9.200;2022-08-21T14:08:33;31.40;11.60
418;DHT22;49;48.530;9.200;2022-08-21T14:11:05;31.30;9.90
418;DHT22;49;48.530;9.200;2022-08-21T14:13:39;31.60;11.00
418;DHT22;49;48.530;9.200;2022-08-21T14:16:13;31.60;12.10
418;DHT22;49;48.530;9.200;2022-08-21T14:19:07;31.60;11.50
418;DHT22;49;48.530;9.200;2022-08-21T14:21:39;31.40;11.20
418;DHT22;49;48.530;9.200;2022-08-21T14:24:10;31.00;11.20
418;DHT22;49;48.530;9.200;2022-08-21T14:26:48;31.00;10.30
418;DHT22;49;48.530;9.200;2022-08-21T14:29:19;31.00;9.90
418;DHT22;49;48.530;9.200;2022-08-21T14:31:50;31.10;10.30
418;DHT22;49;48.530;9.200;2022-08-21T14:34:22;31.30;9.90
418;DHT22;49;48.530;9.200;2022-08-21T14:36:51;31.40;10.80
418;DHT22;49;48.530;9.200;2022-08-21T14:39:21;31.60;9.20
418;DHT22;49;48.530;9.200;2022-08-21T14:41:55;31.10;9.30
418;DHT22;49;48.530;9.200;2022-08-21T14:44:25;30.90;9.50
418;DHT22;49;48.530;9.200;2022-08-21T14:46:56;31.00;9.20
418;DHT22;49;48.530;9.200;2022-08-21T14:49:28;31.30;9.40
418;DHT22;49;48.530;9.200;2022-08-21T14:51:56;31.40;10.00
418;DHT22;49;48.530;9.200;2022-08-21T14:54:31;31.50;9.30
418;DHT22;49;48.530;9.200;2022-08-21T14:57:04;31.30;11.50
418;DHT22;49;48.530;9.200;2022-08-21T14:59:31;31.10;11.20
418;DHT22;49;48.530;9.200;2022-08-21T15:02:01;31.00;10.80
418;DHT22;49;48.530;9.200;2022-08-21T15:04:30;30.90;10.90
418;DHT22;49;48.530;9.200;2022-08-21T15:07:04;30.70;11.30
418;DHT22;49;48.530;9.200;2022-08-21T15:09:32;30.30;11.00
418;DHT22;49;48.530;9.200;2022-08-21T15:12:06;30.40;11.20
418;DHT22;49;48.530;9.200;2022-08-21T15:14:38;30.60;10.50
418;DHT22;49;48.530;9.200;2022-08-21T15:17:10;30.90;11.10
418;DHT22;49;48.530;9.200;2022-08-21T15:19:40;30.90;11.00
418;DHT22;49;48.530;9.200;2022-08-21T15:22:07;30.30;11.90
418;DHT22;49;48.530;9.200;2022-08-21T15:24:37;29.70;12.70
418;DHT22;49;48.530;9.200;2022-08-21T15:27:08;29.50;12.80
418;DHT22;49;48.530;9.200;2022-08-21T15:29:36;29.90;12.20
418;DHT22;49;48.530;9.200;2022-08-21T15:32:16;29.30;13.30
418;DHT22;49;48.530;9.200;2022-08-21T15:34:44;29.50;13.40
418;DHT22;49;48.530;9.200;2022-08-21T15:37:11;29.10;13.60
418;DHT22;49;48.530;9.200;2022-08-21T15:39:39;28.70;13.20
418;DHT22;49;48.530;9.200;2022-08-21T15:42:14;29.00;13.10
418;DHT22;49;48.530;9.200;2022-08-21T15:44:44;29.50;12.30
418;DHT22;49;48.530;9.200;2022-08-21T15:47:13;29.40;13.40
418;DHT22;49;48.530;9.200;2022-08-21T15:49:41;29.20;13.20
418;DHT22;49;48.530;9.200;2022-08-21T15:52:10;29.20;13.30
418;DHT22;49;48.530;9.200;2022-08-21T15:54:38;29.50;13.60
418;DHT22;49;48.530;9.200;2022-08-21T15:57:05;29.70;12.70
418;DHT22;49;48.530;9.200;2022-08-21T15:59:45;29.40;12.60
418;DHT22;49;48.530;9.200;2022-08-21T16:02:17;29.30;13.10
418;DHT22;49;48.530;9.200;2022-08-21T16:04:47;28.90;13.80
418;DHT22;49;48.530;9.200;2022-08-21T16:07:16;28.70;15.00
418;DHT22;49;48.530;9.200;2022-08-21T16:09:44;29.10;13.70
418;DHT22;49;48.530;9.200;2022-08-21T16:12:15;28.70;13.60
418;DHT22;49;48.530;9.200;2022-08-21T16:14:50;28.10;15.10
418;DHT22;49;48.530;9.200;2022-08-21T16:17:22;28.30;16.20
418;DHT22;49;48.530;9.200;2022-08-21T16:20:00;28.80;14.20
418;DHT22;49;48.530;9.200;2022-08-21T16:22:32;29.20;14.00
418;DHT22;49;48.530;9.200;2022-08-21T16:25:03;29.60;13.90
418;DHT22;49;48.530;9.200;2022-08-21T16:27:46;29.10;13.70
418;DHT22;49;48.530;9.200;2022-08-21T16:30:27;29.00;14.00
418;DHT22;49;48.530;9.200;2022-08-21T16:32:54;28.30;14.30
418;DHT22;49;48.530;9.200;2022-08-21T16:35:29;28.10;15.50
418;DHT22;49;48.530;9.200;2022-08-21T16:37:57;28.30;15.20
418;DHT22;49;48.530;9.200;2022-08-21T16:40:24;28.20;15.60
418;DHT22;49;48.530;9.200;2022-08-21T16:42:54;27.90;16.20
418;DHT22;49;48.530;9.200;2022-08-21T16:45:24;28.10;16.20
418;DHT22;49;48.530;9.200;2022-08-21T16:47:52;28.70;15.50
418;DHT22;49;48.530;9.200;2022-08-21T16:50:21;28.70;14.90
418;DHT22;49;48.530;9.200;2022-08-21T16:52:51;28.40;16.00
418;DHT22;49;48.530;9.200;2022-08-21T16:55:19;28.70;15.90
418;DHT22;49;48.530;9.200;2022-08-21T16:57:48;28.60;15.90
418;DHT22;49;48.530;9.200;2022-08-21T17:00:16;28.80;15.60
418;DHT22;49;48.530;9.200;2022-08-21T17:02:50;28.60;15.50
418;DHT22;49;48.530;9.200;2022-08-21T17:05:21;28.50;15.30
418;DHT22;49;48.530;9.200;2022-08-21T17:07:53;28.60;15.40
418;DHT22;49;48.530;9.200;2022-08-21T17:10:22;28.70;15.50
418;DHT22;49;48.530;9.200;2022-08-21T17:12:55;28.90;14.90
418;DHT22;49;48.530;9.200;2022-08-21T17:15:28;28.90;14.70
418;DHT22;49;48.530;9.200;2022-08-21T17:18:08;29.00;15.40
418;DHT22;49;48.530;9.200;2022-08-21T17:20:37;28.60;14.40
418;DHT22;49;48.530;9.200;2022-08-21T17:23:08;29.00;13.90
418;DHT22;49;48.530;9.200;2022-08-21T17:25:37;28.50;14.60
418;DHT22;49;48.530;9.200;2022-08-21T17:28:06;28.70;14.60
418;DHT22;49;48.530;9.200;2022-08-21T17:30:39;29.00;13.80